sensor_id;sensor_type;location;lat;lon;timestamp;temperature;humidity
64843;DHT22;51310;52.198;5.422;2023-02-01T00:00:00;6.90;76.10
64843;DHT22;51310;52.198;5.422;2023-02-01T00:02:26;5.60;76.40
64843;DHT22;51310;52.198;5.422;2023-02-01T00:04:52;5.60;74.80
64843;DHT22;51310;52.198;5.422;2023-02-01T00:07:17;5.70;74.30
64843;DHT22;51310;52.198;5.422;2023-02-01T00:09:43;7.60;74.60
64843;DHT22;51310;52.198;5.422;2023-02-01T00:12:09;5.80;73.00
64843;DHT22;51310;52.198;5.422;2023-02-01T00:14:35;5.90;73.40
64843;DHT22;51310;52.198;5.422;2023-02-01T00:17:07;5.90;72.70
64843;DHT22;51310;52.198;5.422;2023-02-01T00:19:33;6.00;72.90
64843;DHT22;51310;52.198;5.422;2023-02-01T00:21:59;6.10;72.40
64843;DHT22;51310;52.198;5.422;2023-02-01T00:24:25;6.10;72.50
64843;DHT22;51310;52.198;5.422;2023-02-01T00:26:51;6.10;72.20
64843;DHT22;51310;52.198;5.422;2023-02-01T00:29:18;6.20;71.90
64843;DHT22;51310;52.198;5.422;2023-02-01T00:31:45;6.20;71.60
64843;DHT22;51310;52.198;5.422;2023-02-01T00:34:15;6.20;71.60
64843;DHT22;51310;52.198;5.422;2023-02-01T00:36:43;6.20;70.80
64843;DHT22;51310;52.198;5.422;2023-02-01T00:39:09;6.30;70.60
64843;DHT22;51310;52.198;5.422;2023-02-01T00:41:35;6.30;70.40
64843;DHT22;51310;52.198;5.422;2023-02-01T00:44:01;7.40;70.80
64843;DHT22;51310;52.198;5.422;2023-02-01T00:46:27;6.30;69.30
64843;DHT22;51310;52.198;5.422;2023-02-01T00:48:54;6.30;69.20
64843;DHT22;51310;52.198;5.422;2023-02-01T00:51:25;6.30;69.40
64843;DHT22;51310;52.198;5.422;2023-02-01T00:53:53;6.30;69.30
64843;DHT22;51310;52.198;5.422;2023-02-01T00:56:19;6.30;69.00
64843;DHT22;51310;52.198;5.422;2023-02-01T00:58:45;6.30;68.80
64843;DHT22;51310;52.198;5.422;2023-02-01T01:01:24;8.30;71.30
64843;DHT22;51310;52.198;5.422;2023-02-01T01:03:53;6.20;69.60
64843;DHT22;51310;52.198;5.422;2023-02-01T01:06:32;6.30;69.80
64843;DHT22;51310;52.198;5.422;2023-02-01T01:09:00;6.40;67.90
64843;DHT22;51310;52.198;5.422;2023-02-01T01:11:32;6.30;67.20
64843;DHT22;51310;52.198;5.422;2023-02-01T01:14:00;6.40;67.20
64843;DHT22;51310;52.198;5.422;2023-02-01T01:16:27;6.40;66.20
64843;DHT22;51310;52.198;5.422;2023-02-01T01:18:55;6.30;65.90
64843;DHT22;51310;52.198;5.422;2023-02-01T01:21:23;6.50;64.20
64843;DHT22;51310;52.198;5.422;2023-02-01T01:23:49;6.50;63.60
64843;DHT22;51310;52.198;5.422;2023-02-01T01:26:20;6.50;64.30
64843;DHT22;51310;52.198;5.422;2023-02-01T01:28:49;6.50;63.30
64843;DHT22;51310;52.198;5.422;2023-02-01T01:31:17;6.50;62.50
64843;DHT22;51310;52.198;5.422;2023-02-01T01:33:43;6.60;62.30
64843;DHT22;51310;52.198;5.422;2023-02-01T01:36:10;6.70;60.80
64843;DHT22;51310;52.198;5.422;2023-02-01T01:38:40;6.70;60.40
64843;DHT22;51310;52.198;5.422;2023-02-01T01:41:08;6.70;59.40
64843;DHT22;51310;52.198;5.422;2023-02-01T01:43:47;6.70;59.20
64843;DHT22;51310;52.198;5.422;2023-02-01T01:46:29;6.80;59.10
64843;DHT22;51310;52.198;5.422;2023-02-01T01:49:04;6.70;58.70
64843;DHT22;51310;52.198;5.422;2023-02-01T01:51:42;6.90;58.20
64843;DHT22;51310;52.198;5.422;2023-02-01T01:54:18;6.80;57.50
64843;DHT22;51310;52.198;5.422;2023-02-01T01:56:56;6.90;57.00
64843;DHT22;51310;52.198;5.422;2023-02-01T01:59:27;6.90;57.00
64843;DHT22;51310;52.198;5.422;2023-02-01T02:01:54;7.00;56.60
64843;DHT22;51310;52.198;5.422;2023-02-01T02:04:21;8.50;57.30
64843;DHT22;51310;52.198;5.422;2023-02-01T02:06:56;7.30;56.70
64843;DHT22;51310;52.198;5.422;2023-02-01T02:09:26;6.90;57.00
64843;DHT22;51310;52.198;5.422;2023-02-01T02:11:51;7.10;56.50
64843;DHT22;51310;52.198;5.422;2023-02-01T02:14:19;7.00;56.70
64843;DHT22;51310;52.198;5.422;2023-02-01T02:34:39;7.20;57.60
64843;DHT22;51310;52.198;5.422;2023-02-01T02:37:15;7.20;57.90
64843;DHT22;51310;52.198;5.422;2023-02-01T02:40:18;7.20;58.00
64843;DHT22;51310;52.198;5.422;2023-02-01T02:43:27;7.20;58.00
64843;DHT22;51310;52.198;5.422;2023-02-01T02:49:49;7.20;56.80
64843;DHT22;51310;52.198;5.422;2023-02-01T02:52:44;7.20;57.80
64843;DHT22;51310;52.198;5.422;2023-02-01T02:55:35;7.20;56.70
64843;DHT22;51310;52.198;5.422;2023-02-01T02:58:06;7.20;56.50
64843;DHT22;51310;52.198;5.422;2023-02-01T03:00:53;7.10;57.60
64843;DHT22;51310;52.198;5.422;2023-02-01T03:03:39;7.10;58.50
64843;DHT22;51310;52.198;5.422;2023-02-01T03:06:24;7.10;57.20
64843;DHT22;51310;52.198;5.422;2023-02-01T03:08:50;7.00;57.80
64843;DHT22;51310;52.198;5.422;2023-02-01T03:11:19;7.10;56.70
64843;DHT22;51310;52.198;5.422;2023-02-01T03:16:40;7.00;57.50
64843;DHT22;51310;52.198;5.422;2023-02-01T03:19:25;7.00;56.60
64843;DHT22;51310;52.198;5.422;2023-02-01T03:22:01;7.00;57.10
64843;DHT22;51310;52.198;5.422;2023-02-01T03:24:41;6.90;58.70
64843;DHT22;51310;52.198;5.422;2023-02-01T03:28:12;6.80;58.40
64843;DHT22;51310;52.198;5.422;2023-02-01T03:30:25;6.80;58.70
64843;DHT22;51310;52.198;5.422;2023-02-01T03:32:56;6.90;59.00
64843;DHT22;51310;52.198;5.422;2023-02-01T03:35:44;9.90;61.00
64843;DHT22;51310;52.198;5.422;2023-02-01T03:41:44;6.80;60.50
64843;DHT22;51310;52.198;5.422;2023-02-01T03:47:09;6.70;61.40
64843;DHT22;51310;52.198;5.422;2023-02-01T03:50:03;6.70;61.80
64843;DHT22;51310;52.198;5.422;2023-02-01T03:52:47;6.70;61.60
64843;DHT22;51310;52.198;5.422;2023-02-01T03:55:20;6.70;61.70
64843;DHT22;51310;52.198;5.422;2023-02-01T03:57:58;6.70;62.10
64843;DHT22;51310;52.198;5.422;2023-02-01T04:00:26;6.70;62.40
64843;DHT22;51310;52.198;5.422;2023-02-01T04:02:53;6.70;62.50
64843;DHT22;51310;52.198;5.422;2023-02-01T04:05:20;6.70;62.10
64843;DHT22;51310;52.198;5.422;2023-02-01T04:07:46;6.80;61.00
64843;DHT22;51310;52.198;5.422;2023-02-01T04:10:13;6.90;59.70
64843;DHT22;51310;52.198;5.422;2023-02-01T04:12:39;6.90;59.60
64843;DHT22;51310;52.198;5.422;2023-02-01T04:15:05;7.00;58.30
64843;DHT22;51310;52.198;5.422;2023-02-01T04:17:31;7.00;57.70
64843;DHT22;51310;52.198;5.422;2023-02-01T04:19:57;7.10;57.50
64843;DHT22;51310;52.198;5.422;2023-02-01T04:22:23;7.10;57.10
64843;DHT22;51310;52.198;5.422;2023-02-01T04:24:48;7.10;56.50
64843;DHT22;51310;52.198;5.422;2023-02-01T04:27:14;7.10;56.90
64843;DHT22;51310;52.198;5.422;2023-02-01T04:29:40;7.10;57.10
64843;DHT22;51310;52.198;5.422;2023-02-01T04:32:06;7.00;57.30
64843;DHT22;51310;52.198;5.422;2023-02-01T04:34:32;7.00;57.60
64843;DHT22;51310;52.198;5.422;2023-02-01T04:36:58;7.00;57.90
64843;DHT22;51310;52.198;5.422;2023-02-01T04:39:23;7.00;57.90
64843;DHT22;51310;52.198;5.422;2023-02-01T04:41:49;7.00;58.70
64843;DHT22;51310;52.198;5.422;2023-02-01T04:44:18;6.90;59.10
64843;DHT22;51310;52.198;5.422;2023-02-01T04:46:46;6.90;59.40
64843;DHT22;51310;52.198;5.422;2023-02-01T04:49:13;7.00;58.60
64843;DHT22;51310;52.198;5.422;2023-02-01T04:51:40;6.90;59.40
64843;DHT22;51310;52.198;5.422;2023-02-01T04:54:07;8.80;61.50
64843;DHT22;51310;52.198;5.422;2023-02-01T04:56:33;6.90;59.30
64843;DHT22;51310;52.198;5.422;2023-02-01T04:59:02;7.00;58.70
64843;DHT22;51310;52.198;5.422;2023-02-01T05:01:28;7.00;59.00
64843;DHT22;51310;52.198;5.422;2023-02-01T05:03:54;6.80;59.50
64843;DHT22;51310;52.198;5.422;2023-02-01T05:06:20;7.00;59.60
64843;DHT22;51310;52.198;5.422;2023-02-01T05:08:46;6.90;59.30
64843;DHT22;51310;52.198;5.422;2023-02-01T05:11:12;7.90;59.80
64843;DHT22;51310;52.198;5.422;2023-02-01T05:13:56;6.90;59.40
64843;DHT22;51310;52.198;5.422;2023-02-01T05:16:22;6.90;59.70
64843;DHT22;51310;52.198;5.422;2023-02-01T05:18:47;6.90;60.00
64843;DHT22;51310;52.198;5.422;2023-02-01T05:21:13;6.90;59.80
64843;DHT22;51310;52.198;5.422;2023-02-01T05:23:39;6.90;60.40
64843;DHT22;51310;52.198;5.422;2023-02-01T05:26:34;6.80;61.20
64843;DHT22;51310;52.198;5.422;2023-02-01T05:29:00;6.80;61.60
64843;DHT22;51310;52.198;5.422;2023-02-01T05:31:26;6.80;62.40
64843;DHT22;51310;52.198;5.422;2023-02-01T05:33:51;6.80;62.80
64843;DHT22;51310;52.198;5.422;2023-02-01T05:36:17;6.80;63.40
64843;DHT22;51310;52.198;5.422;2023-02-01T05:38:43;6.80;63.10
64843;DHT22;51310;52.198;5.422;2023-02-01T05:41:09;6.90;63.20
64843;DHT22;51310;52.198;5.422;2023-02-01T05:43:35;7.40;63.60
64843;DHT22;51310;52.198;5.422;2023-02-01T05:46:01;6.90;63.50
64843;DHT22;51310;52.198;5.422;2023-02-01T05:48:27;6.90;63.10
64843;DHT22;51310;52.198;5.422;2023-02-01T05:50:53;6.90;62.90
64843;DHT22;51310;52.198;5.422;2023-02-01T05:53:19;6.90;63.00
64843;DHT22;51310;52.198;5.422;2023-02-01T05:55:45;6.90;63.10
64843;DHT22;51310;52.198;5.422;2023-02-01T05:58:11;6.90;63.40
64843;DHT22;51310;52.198;5.422;2023-02-01T06:00:37;7.00;62.20
64843;DHT22;51310;52.198;5.422;2023-02-01T06:03:03;7.00;62.60
64843;DHT22;51310;52.198;5.422;2023-02-01T06:05:29;7.00;62.00
64843;DHT22;51310;52.198;5.422;2023-02-01T06:07:55;7.00;61.90
64843;DHT22;51310;52.198;5.422;2023-02-01T06:10:21;7.00;62.70
64843;DHT22;51310;52.198;5.422;2023-02-01T06:12:46;7.00;63.30
64843;DHT22;51310;52.198;5.422;2023-02-01T06:15:13;7.00;63.10
64843;DHT22;51310;52.198;5.422;2023-02-01T06:17:41;7.00;63.80
64843;DHT22;51310;52.198;5.422;2023-02-01T06:20:11;6.90;63.30
64843;DHT22;51310;52.198;5.422;2023-02-01T06:22:39;7.00;62.70
64843;DHT22;51310;52.198;5.422;2023-02-01T06:25:07;7.00;62.70
64843;DHT22;51310;52.198;5.422;2023-02-01T06:27:34;7.00;63.20
64843;DHT22;51310;52.198;5.422;2023-02-01T06:30:02;9.00;64.30
64843;DHT22;51310;52.198;5.422;2023-02-01T06:32:29;6.90;63.70
64843;DHT22;51310;52.198;5.422;2023-02-01T06:34:54;7.00;63.60
64843;DHT22;51310;52.198;5.422;2023-02-01T06:37:22;6.90;63.90
64843;DHT22;51310;52.198;5.422;2023-02-01T06:39:50;6.80;64.50
64843;DHT22;51310;52.198;5.422;2023-02-01T06:42:16;6.80;64.40
64843;DHT22;51310;52.198;5.422;2023-02-01T06:44:42;6.70;65.10
64843;DHT22;51310;52.198;5.422;2023-02-01T06:47:08;6.60;65.80
64843;DHT22;51310;52.198;5.422;2023-02-01T06:49:34;6.60;66.40
64843;DHT22;51310;52.198;5.422;2023-02-01T06:52:00;6.50;66.90
64843;DHT22;51310;52.198;5.422;2023-02-01T06:54:29;6.60;67.00
64843;DHT22;51310;52.198;5.422;2023-02-01T06:56:57;6.60;66.50
64843;DHT22;51310;52.198;5.422;2023-02-01T06:59:23;6.60;66.80
64843;DHT22;51310;52.198;5.422;2023-02-01T07:01:48;6.50;67.00
64843;DHT22;51310;52.198;5.422;2023-02-01T07:04:14;6.50;67.90
64843;DHT22;51310;52.198;5.422;2023-02-01T07:06:40;6.50;67.70
64843;DHT22;51310;52.198;5.422;2023-02-01T07:09:07;6.50;68.10
64843;DHT22;51310;52.198;5.422;2023-02-01T07:11:33;6.40;69.80
64843;DHT22;51310;52.198;5.422;2023-02-01T07:13:59;6.50;69.00
64843;DHT22;51310;52.198;5.422;2023-02-01T07:16:25;6.00;69.10
64843;DHT22;51310;52.198;5.422;2023-02-01T07:18:51;6.60;69.40
64843;DHT22;51310;52.198;5.422;2023-02-01T07:21:18;6.60;69.60
64843;DHT22;51310;52.198;5.422;2023-02-01T07:23:46;6.60;69.20
64843;DHT22;51310;52.198;5.422;2023-02-01T07:26:13;6.70;69.20
64843;DHT22;51310;52.198;5.422;2023-02-01T07:28:40;6.80;68.80
64843;DHT22;51310;52.198;5.422;2023-02-01T07:31:08;6.70;69.40
64843;DHT22;51310;52.198;5.422;2023-02-01T07:33:36;6.60;71.40
64843;DHT22;51310;52.198;5.422;2023-02-01T07:36:04;6.50;70.90
64843;DHT22;51310;52.198;5.422;2023-02-01T07:38:32;6.50;71.40
64843;DHT22;51310;52.198;5.422;2023-02-01T07:41:03;6.60;75.00
64843;DHT22;51310;52.198;5.422;2023-02-01T07:43:31;6.60;71.60
64843;DHT22;51310;52.198;5.422;2023-02-01T07:45:58;6.60;72.00
64843;DHT22;51310;52.198;5.422;2023-02-01T07:48:25;6.60;71.80
64843;DHT22;51310;52.198;5.422;2023-02-01T07:50:59;6.60;71.60
64843;DHT22;51310;52.198;5.422;2023-02-01T07:53:30;6.70;70.80
64843;DHT22;51310;52.198;5.422;2023-02-01T07:55:57;6.70;71.20
64843;DHT22;51310;52.198;5.422;2023-02-01T07:58:24;6.60;71.50
64843;DHT22;51310;52.198;5.422;2023-02-01T08:00:51;6.70;70.80
64843;DHT22;51310;52.198;5.422;2023-02-01T08:03:36;6.70;70.50
64843;DHT22;51310;52.198;5.422;2023-02-01T08:06:02;6.70;70.80
64843;DHT22;51310;52.198;5.422;2023-02-01T08:08:28;6.60;71.30
64843;DHT22;51310;52.198;5.422;2023-02-01T08:11:02;6.70;70.90
64843;DHT22;51310;52.198;5.422;2023-02-01T08:13:30;6.70;71.40
64843;DHT22;51310;52.198;5.422;2023-02-01T08:16:01;8.60;72.60
64843;DHT22;51310;52.198;5.422;2023-02-01T08:18:28;6.70;70.70
64843;DHT22;51310;52.198;5.422;2023-02-01T08:20:54;6.80;69.90
64843;DHT22;51310;52.198;5.422;2023-02-01T08:23:21;6.80;69.80
64843;DHT22;51310;52.198;5.422;2023-02-01T08:25:47;6.90;70.00
64843;DHT22;51310;52.198;5.422;2023-02-01T08:28:14;6.90;69.00
64843;DHT22;51310;52.198;5.422;2023-02-01T08:30:40;7.00;69.90
64843;DHT22;51310;52.198;5.422;2023-02-01T08:33:09;7.00;70.00
64843;DHT22;51310;52.198;5.422;2023-02-01T08:35:37;7.00;69.40
64843;DHT22;51310;52.198;5.422;2023-02-01T08:38:04;7.00;69.40
64843;DHT22;51310;52.198;5.422;2023-02-01T08:40:30;7.00;68.60
64843;DHT22;51310;52.198;5.422;2023-02-01T08:42:57;7.10;69.70
64843;DHT22;51310;52.198;5.422;2023-02-01T08:45:25;7.10;69.00
64843;DHT22;51310;52.198;5.422;2023-02-01T08:47:52;7.10;69.50
64843;DHT22;51310;52.198;5.422;2023-02-01T08:50:19;7.00;70.40
64843;DHT22;51310;52.198;5.422;2023-02-01T08:52:46;7.00;70.70
64843;DHT22;51310;52.198;5.422;2023-02-01T08:55:13;7.00;69.90
64843;DHT22;51310;52.198;5.422;2023-02-01T08:57:39;7.10;70.10
64843;DHT22;51310;52.198;5.422;2023-02-01T09:00:08;7.10;68.60
64843;DHT22;51310;52.198;5.422;2023-02-01T09:02:37;7.20;68.30
64843;DHT22;51310;52.198;5.422;2023-02-01T09:05:03;7.50;67.40
64843;DHT22;51310;52.198;5.422;2023-02-01T09:07:30;7.30;66.80
64843;DHT22;51310;52.198;5.422;2023-02-01T09:09:57;7.40;66.00
64843;DHT22;51310;52.198;5.422;2023-02-01T09:12:27;7.60;64.50
64843;DHT22;51310;52.198;5.422;2023-02-01T09:14:54;7.60;63.00
64843;DHT22;51310;52.198;5.422;2023-02-01T09:17:21;7.70;62.40
64843;DHT22;51310;52.198;5.422;2023-02-01T09:19:46;7.80;61.90
64843;DHT22;51310;52.198;5.422;2023-02-01T09:22:12;7.80;60.90
64843;DHT22;51310;52.198;5.422;2023-02-01T09:24:39;7.70;61.80
64843;DHT22;51310;52.198;5.422;2023-02-01T09:27:05;7.70;60.50
64843;DHT22;51310;52.198;5.422;2023-02-01T09:29:30;7.60;60.50
64843;DHT22;51310;52.198;5.422;2023-02-01T09:31:56;7.80;59.90
64843;DHT22;51310;52.198;5.422;2023-02-01T09:34:22;7.80;60.30
64843;DHT22;51310;52.198;5.422;2023-02-01T09:36:48;7.80;59.20
64843;DHT22;51310;52.198;5.422;2023-02-01T09:39:14;7.80;58.40
64843;DHT22;51310;52.198;5.422;2023-02-01T09:42:10;7.80;58.80
64843;DHT22;51310;52.198;5.422;2023-02-01T09:47:30;7.90;57.50
64843;DHT22;51310;52.198;5.422;2023-02-01T09:50:12;8.90;57.70
64843;DHT22;51310;52.198;5.422;2023-02-01T09:53:02;7.80;56.20
64843;DHT22;51310;52.198;5.422;2023-02-01T09:55:39;7.80;57.40
64843;DHT22;51310;52.198;5.422;2023-02-01T09:58:35;7.80;55.20
64843;DHT22;51310;52.198;5.422;2023-02-01T10:01:05;7.80;56.30
64843;DHT22;51310;52.198;5.422;2023-02-01T10:03:39;7.80;56.80
64843;DHT22;51310;52.198;5.422;2023-02-01T10:06:16;7.80;56.90
64843;DHT22;51310;52.198;5.422;2023-02-01T10:08:55;7.80;57.50
64843;DHT22;51310;52.198;5.422;2023-02-01T10:11:47;7.70;60.30
64843;DHT22;51310;52.198;5.422;2023-02-01T10:17:20;7.60;64.80
64843;DHT22;51310;52.198;5.422;2023-02-01T10:20:16;7.40;69.90
64843;DHT22;51310;52.198;5.422;2023-02-01T10:23:05;7.30;70.80
64843;DHT22;51310;52.198;5.422;2023-02-01T10:25:55;7.30;72.30
64843;DHT22;51310;52.198;5.422;2023-02-01T10:28:34;7.20;78.90
64843;DHT22;51310;52.198;5.422;2023-02-01T10:31:02;7.10;86.80
64843;DHT22;51310;52.198;5.422;2023-02-01T10:33:35;7.00;85.00
64843;DHT22;51310;52.198;5.422;2023-02-01T10:38:57;6.90;92.70
64843;DHT22;51310;52.198;5.422;2023-02-01T10:41:31;7.00;91.10
64843;DHT22;51310;52.198;5.422;2023-02-01T10:44:01;7.00;91.30
64843;DHT22;51310;52.198;5.422;2023-02-01T10:46:31;7.10;87.80
64843;DHT22;51310;52.198;5.422;2023-02-01T10:49:02;7.20;86.90
64843;DHT22;51310;52.198;5.422;2023-02-01T10:51:47;7.20;84.00
64843;DHT22;51310;52.198;5.422;2023-02-01T10:54:21;6.10;83.40
64843;DHT22;51310;52.198;5.422;2023-02-01T10:56:57;9.00;80.60
64843;DHT22;51310;52.198;5.422;2023-02-01T10:59:28;7.40;78.30
64843;DHT22;51310;52.198;5.422;2023-02-01T11:02:05;7.60;75.70
64843;DHT22;51310;52.198;5.422;2023-02-01T11:04:46;7.60;71.60
64843;DHT22;51310;52.198;5.422;2023-02-01T11:09:55;7.70;71.30
64843;DHT22;51310;52.198;5.422;2023-02-01T11:12:33;7.70;70.20
64843;DHT22;51310;52.198;5.422;2023-02-01T11:17:50;7.70;69.30
64843;DHT22;51310;52.198;5.422;2023-02-01T11:20:24;7.70;70.90
64843;DHT22;51310;52.198;5.422;2023-02-01T11:22:59;7.60;73.20
64843;DHT22;51310;52.198;5.422;2023-02-01T11:25:25;7.60;73.90
64843;DHT22;51310;52.198;5.422;2023-02-01T11:27:53;7.60;73.10
64843;DHT22;51310;52.198;5.422;2023-02-01T11:30:36;7.80;71.10
64843;DHT22;51310;52.198;5.422;2023-02-01T11:33:07;7.70;69.90
64843;DHT22;51310;52.198;5.422;2023-02-01T11:35:39;7.80;68.10
64843;DHT22;51310;52.198;5.422;2023-02-01T11:38:36;7.80;65.90
64843;DHT22;51310;52.198;5.422;2023-02-01T11:41:25;7.90;67.20
64843;DHT22;51310;52.198;5.422;2023-02-01T11:44:01;8.00;67.00
64843;DHT22;51310;52.198;5.422;2023-02-01T11:46:41;8.00;66.40
64843;DHT22;51310;52.198;5.422;2023-02-01T11:49:23;8.00;66.30
64843;DHT22;51310;52.198;5.422;2023-02-01T12:03:34;8.00;65.00
64843;DHT22;51310;52.198;5.422;2023-02-01T12:18:12;8.30;60.50
64843;DHT22;51310;52.198;5.422;2023-02-01T12:27:28;8.40;57.90
64843;DHT22;51310;52.198;5.422;2023-02-01T12:33:34;8.30;58.50
64843;DHT22;51310;52.198;5.422;2023-02-01T12:39:25;8.30;58.40
64843;DHT22;51310;52.198;5.422;2023-02-01T12:45:36;8.30;58.40
64843;DHT22;51310;52.198;5.422;2023-02-01T12:47:59;8.30;59.10
64843;DHT22;51310;52.198;5.422;2023-02-01T12:50:49;8.30;58.90
64843;DHT22;51310;52.198;5.422;2023-02-01T12:54:06;8.30;58.30
64843;DHT22;51310;52.198;5.422;2023-02-01T12:56:39;8.30;59.40
64843;DHT22;51310;52.198;5.422;2023-02-01T12:59:40;8.20;59.50
64843;DHT22;51310;52.198;5.422;2023-02-01T13:02:31;8.20;60.20
64843;DHT22;51310;52.198;5.422;2023-02-01T13:08:11;8.20;60.30
64843;DHT22;51310;52.198;5.422;2023-02-01T13:11:03;8.30;60.30
64843;DHT22;51310;52.198;5.422;2023-02-01T13:13:49;8.20;60.10
64843;DHT22;51310;52.198;5.422;2023-02-01T13:16:27;8.20;59.50
64843;DHT22;51310;52.198;5.422;2023-02-01T13:19:09;8.20;59.60
64843;DHT22;51310;52.198;5.422;2023-02-01T13:21:59;8.30;59.30
64843;DHT22;51310;52.198;5.422;2023-02-01T13:24:42;8.30;61.30
64843;DHT22;51310;52.198;5.422;2023-02-01T13:27:16;8.30;59.60
64843;DHT22;51310;52.198;5.422;2023-02-01T13:30:04;8.30;58.70
64843;DHT22;51310;52.198;5.422;2023-02-01T13:33:03;8.30;58.90
64843;DHT22;51310;52.198;5.422;2023-02-01T13:36:20;8.30;58.00
64843;DHT22;51310;52.198;5.422;2023-02-01T13:39:30;8.30;57.60
64843;DHT22;51310;52.198;5.422;2023-02-01T13:42:28;8.30;58.70
64843;DHT22;51310;52.198;5.422;2023-02-01T13:45:00;8.40;58.90
64843;DHT22;51310;52.198;5.422;2023-02-01T13:47:32;8.40;59.00
64843;DHT22;51310;52.198;5.422;2023-02-01T13:50:29;8.40;59.60
64843;DHT22;51310;52.198;5.422;2023-02-01T13:53:04;8.40;59.00
64843;DHT22;51310;52.198;5.422;2023-02-01T13:55:41;8.50;58.30
64843;DHT22;51310;52.198;5.422;2023-02-01T13:58:18;8.50;58.00
64843;DHT22;51310;52.198;5.422;2023-02-01T14:00:48;8.50;57.80
64843;DHT22;51310;52.198;5.422;2023-02-01T14:03:45;8.60;56.00
64843;DHT22;51310;52.198;5.422;2023-02-01T14:06:40;8.60;56.40
64843;DHT22;51310;52.198;5.422;2023-02-01T14:11:46;8.70;57.00
64843;DHT22;51310;52.198;5.422;2023-02-01T14:16:43;8.70;57.40
64843;DHT22;51310;52.198;5.422;2023-02-01T14:19:31;8.60;57.70
64843;DHT22;51310;52.198;5.422;2023-02-01T14:21:59;8.60;58.70
64843;DHT22;51310;52.198;5.422;2023-02-01T14:29:41;8.60;59.30
64843;DHT22;51310;52.198;5.422;2023-02-01T14:32:16;8.60;60.00
64843;DHT22;51310;52.198;5.422;2023-02-01T14:44:47;8.60;60.00
64843;DHT22;51310;52.198;5.422;2023-02-01T14:52:38;8.50;63.20
64843;DHT22;51310;52.198;5.422;2023-02-01T14:55:17;8.30;66.20
64843;DHT22;51310;52.198;5.422;2023-02-01T14:57:52;8.10;82.10
64843;DHT22;51310;52.198;5.422;2023-02-01T15:00:24;7.60;93.10
64843;DHT22;51310;52.198;5.422;2023-02-01T15:02:54;7.20;95.90
64843;DHT22;51310;52.198;5.422;2023-02-01T15:05:30;7.00;96.60
64843;DHT22;51310;52.198;5.422;2023-02-01T15:08:12;6.80;99.90
64843;DHT22;51310;52.198;5.422;2023-02-01T15:10:44;6.70;99.90
64843;DHT22;51310;52.198;5.422;2023-02-01T15:13:33;6.80;99.90
64843;DHT22;51310;52.198;5.422;2023-02-01T15:16:12;6.90;99.90
64843;DHT22;51310;52.198;5.422;2023-02-01T15:18:40;7.10;99.90
64843;DHT22;51310;52.198;5.422;2023-02-01T15:21:22;7.10;99.90
64843;DHT22;51310;52.198;5.422;2023-02-01T15:23:50;7.10;99.90
64843;DHT22;51310;52.198;5.422;2023-02-01T15:26:34;7.20;99.90
64843;DHT22;51310;52.198;5.422;2023-02-01T15:29:00;7.50;99.70
64843;DHT22;51310;52.198;5.422;2023-02-01T15:31:37;7.70;97.50
64843;DHT22;51310;52.198;5.422;2023-02-01T15:34:07;7.80;95.60
64843;DHT22;51310;52.198;5.422;2023-02-01T15:36:33;7.90;94.60
64843;DHT22;51310;52.198;5.422;2023-02-01T15:41:56;8.00;92.60
64843;DHT22;51310;52.198;5.422;2023-02-01T15:44:46;8.10;91.40
64843;DHT22;51310;52.198;5.422;2023-02-01T15:47:17;8.00;91.60
64843;DHT22;51310;52.198;5.422;2023-02-01T15:49:49;8.10;90.00
64843;DHT22;51310;52.198;5.422;2023-02-01T15:52:35;8.20;87.10
64843;DHT22;51310;52.198;5.422;2023-02-01T15:55:19;8.30;84.60
64843;DHT22;51310;52.198;5.422;2023-02-01T15:57:48;8.20;85.40
64843;DHT22;51310;52.198;5.422;2023-02-01T16:00:50;8.30;81.70
64843;DHT22;51310;52.198;5.422;2023-02-01T16:03:45;8.30;82.00
64843;DHT22;51310;52.198;5.422;2023-02-01T16:09:10;8.40;79.30
64843;DHT22;51310;52.198;5.422;2023-02-01T16:11:59;8.40;78.70
64843;DHT22;51310;52.198;5.422;2023-02-01T16:14:26;8.40;78.60
64843;DHT22;51310;52.198;5.422;2023-02-01T16:16:55;8.30;79.10
64843;DHT22;51310;52.198;5.422;2023-02-01T16:19:23;8.40;78.50
64843;DHT22;51310;52.198;5.422;2023-02-01T16:21:53;8.30;80.20
64843;DHT22;51310;52.198;5.422;2023-02-01T16:24:20;8.40;79.50
64843;DHT22;51310;52.198;5.422;2023-02-01T16:26:48;8.40;79.70
64843;DHT22;51310;52.198;5.422;2023-02-01T16:29:14;8.30;81.80
64843;DHT22;51310;52.198;5.422;2023-02-01T16:31:40;8.20;83.80
64843;DHT22;51310;52.198;5.422;2023-02-01T16:34:13;8.30;82.20
64843;DHT22;51310;52.198;5.422;2023-02-01T16:36:42;8.20;84.20
64843;DHT22;51310;52.198;5.422;2023-02-01T16:39:11;8.20;85.90
64843;DHT22;51310;52.198;5.422;2023-02-01T16:41:39;8.20;86.80
64843;DHT22;51310;52.198;5.422;2023-02-01T16:44:04;8.20;85.50
64843;DHT22;51310;52.198;5.422;2023-02-01T16:46:35;8.20;86.30
64843;DHT22;51310;52.198;5.422;2023-02-01T16:49:05;8.20;85.30
64843;DHT22;51310;52.198;5.422;2023-02-01T16:51:41;8.20;86.50
64843;DHT22;51310;52.198;5.422;2023-02-01T16:54:07;8.10;87.00
64843;DHT22;51310;52.198;5.422;2023-02-01T16:56:34;8.20;84.80
64843;DHT22;51310;52.198;5.422;2023-02-01T16:59:01;8.20;85.00
64843;DHT22;51310;52.198;5.422;2023-02-01T17:01:28;8.30;83.30
64843;DHT22;51310;52.198;5.422;2023-02-01T17:03:53;8.30;82.90
64843;DHT22;51310;52.198;5.422;2023-02-01T17:06:22;8.30;83.40
64843;DHT22;51310;52.198;5.422;2023-02-01T17:08:52;9.70;83.50
64843;DHT22;51310;52.198;5.422;2023-02-01T17:11:20;8.40;81.90
64843;DHT22;51310;52.198;5.422;2023-02-01T17:13:45;8.40;83.10
64843;DHT22;51310;52.198;5.422;2023-02-01T17:16:30;10.40;83.80
64843;DHT22;51310;52.198;5.422;2023-02-01T17:18:59;8.40;82.90
64843;DHT22;51310;52.198;5.422;2023-02-01T17:21:30;8.50;81.90
64843;DHT22;51310;52.198;5.422;2023-02-01T17:24:04;8.50;82.00
64843;DHT22;51310;52.198;5.422;2023-02-01T17:26:30;8.50;81.40
64843;DHT22;51310;52.198;5.422;2023-02-01T17:28:55;8.40;83.50
64843;DHT22;51310;52.198;5.422;2023-02-01T17:31:22;8.40;83.80
64843;DHT22;51310;52.198;5.422;2023-02-01T17:33:48;8.40;83.40
64843;DHT22;51310;52.198;5.422;2023-02-01T17:36:16;8.50;82.30
64843;DHT22;51310;52.198;5.422;2023-02-01T17:38:43;9.70;84.10
64843;DHT22;51310;52.198;5.422;2023-02-01T17:41:13;10.40;83.10
64843;DHT22;51310;52.198;5.422;2023-02-01T17:43:39;8.50;81.10
64843;DHT22;51310;52.198;5.422;2023-02-01T17:46:14;8.50;82.30
64843;DHT22;51310;52.198;5.422;2023-02-01T17:48:41;8.50;81.80
64843;DHT22;51310;52.198;5.422;2023-02-01T17:51:19;8.50;81.10
64843;DHT22;51310;52.198;5.422;2023-02-01T17:53:48;9.10;80.70
64843;DHT22;51310;52.198;5.422;2023-02-01T17:56:15;8.60;80.30
64843;DHT22;51310;52.198;5.422;2023-02-01T17:58:43;8.50;83.60
64843;DHT22;51310;52.198;5.422;2023-02-01T18:01:15;8.40;88.80
64843;DHT22;51310;52.198;5.422;2023-02-01T18:03:43;8.30;93.40
64843;DHT22;51310;52.198;5.422;2023-02-01T18:06:12;8.00;96.30
64843;DHT22;51310;52.198;5.422;2023-02-01T18:08:40;9.50;96.00
64843;DHT22;51310;52.198;5.422;2023-02-01T18:11:15;6.30;98.30
64843;DHT22;51310;52.198;5.422;2023-02-01T18:13:42;5.50;99.90
64843;DHT22;51310;52.198;5.422;2023-02-01T18:16:27;5.20;99.90